Time;durP1;ratioP1;P1;durP2;ratioP2;P2;SDS_P1;SDS_P2;PMS_P1;PMS_P2;Temp;Humidity;BMP_temperature;BMP_pressure;BME280_temperature;BME280_humidity;BME280_pressure;Samples;Min_cycle;Max_cycle;Signal;HPM_P1;HPM_P2
2022/06/03 00:01:27;;;;;;;29.88;28.27;;;;;;;20.73;44.56;101808.78;5036054;28;20117;-86
2022/06/03 00:04:13;;;;;;;31.65;29.52;;;;;;;20.75;44.45;101800.25;5035614;28;20470;-86
2022/06/03 00:06:41;;;;;;;30.30;28.80;;;;;;;20.74;44.94;101802.19;5035374;28;20029;-86
2022/06/03 00:09:27;;;;;;;30.60;28.90;;;;;;;20.75;44.45;101798.31;5034050;28;20472;-86
2022/06/03 00:12:28;;;;;;;28.95;27.25;;;;;;;20.74;44.51;101807.69;5034632;28;20041;-86
2022/06/03 00:15:24;;;;;;;29.70;28.10;;;;;;;20.73;44.78;101803.28;5034249;28;20025;-86
2022/06/03 00:18:31;;;;;;;29.60;28.00;;;;;;;20.73;44.97;101795.03;5035405;28;20037;-87
2022/06/03 00:21:04;;;;;;;29.45;27.75;;;;;;;20.71;44.93;101800.03;5033851;28;20136;-85
2022/06/03 00:24:01;;;;;;;30.02;28.42;;;;;;;20.70;45.03;101790.13;5034195;28;20048;-86
2022/06/03 00:26:35;;;;;;;29.25;27.75;;;;;;;20.72;44.76;101789.84;5034534;28;20037;-86
2022/06/03 00:29:22;;;;;;;29.35;27.60;;;;;;;20.72;44.91;101787.94;5034199;28;20040;-86
2022/06/03 00:32:12;;;;;;;29.75;28.25;;;;;;;20.73;44.77;101788.75;5034260;28;20056;-86
2022/06/03 00:35:03;;;;;;;29.58;27.88;;;;;;;20.72;44.80;101793.41;5033953;28;20087;-86
2022/06/03 00:37:28;;;;;;;30.10;28.50;;;;;;;20.71;44.38;101789.03;5035003;28;20461;-86
2022/06/03 00:40:07;;;;;;;29.38;27.80;;;;;;;20.71;44.61;101796.44;5033352;28;20061;-87
2022/06/03 00:42:53;;;;;;;28.60;27.00;;;;;;;20.72;44.70;101787.09;5033837;28;20029;-87
2022/06/03 00:45:37;;;;;;;29.45;27.85;;;;;;;20.70;44.53;101795.63;5044760;28;20087;-87
2022/06/03 00:48:23;;;;;;;29.52;27.98;;;;;;;20.70;44.75;101789.31;5046931;28;20485;-86
2022/06/03 00:51:03;;;;;;;28.42;26.85;;;;;;;20.70;44.52;101787.38;5038152;28;20034;-86
2022/06/03 00:53:47;;;;;;;28.63;27.20;;;;;;;20.71;44.65;101790.94;5034361;28;20034;-86
2022/06/03 00:56:43;;;;;;;29.35;27.75;;;;;;;20.71;44.54;101790.94;5033385;28;20030;-86
2022/06/03 00:59:08;;;;;;;30.45;28.75;;;;;;;20.69;44.83;101796.75;5034389;28;20159;-85
2022/06/03 01:01:52;;;;;;;28.77;27.23;;;;;;;20.69;44.63;101788.50;5034318;28;20116;-86
2022/06/03 01:04:43;;;;;;;30.63;29.02;;;;;;;20.68;44.89;101777.78;5033596;28;20038;-86
2022/06/03 01:07:20;;;;;;;28.98;27.45;;;;;;;20.66;44.94;101778.09;5033379;28;20041;-86
2022/06/03 01:10:12;;;;;;;30.13;28.63;;;;;;;20.68;44.88;101775.88;5033608;28;20029;-86
2022/06/03 01:13:14;;;;;;;28.67;27.25;;;;;;;20.66;44.83;101772.59;5034195;28;20064;-86
2022/06/03 01:15:58;;;;;;;28.42;26.92;;;;;;;20.66;45.07;101769.03;5034385;28;20033;-87
2022/06/03 01:18:59;;;;;;;29.38;27.77;;;;;;;20.66;45.26;101766.28;5034100;28;20060;-87
2022/06/03 01:21:46;;;;;;;28.85;27.42;;;;;;;20.66;44.89;101766.28;5032996;28;20029;-86
2022/06/03 01:24:26;;;;;;;30.02;28.42;;;;;;;20.65;44.67;101761.91;5034163;28;20069;-86
2022/06/03 01:26:57;;;;;;;29.15;27.65;;;;;;;20.64;44.93;101760.28;5034260;28;20033;-85
2022/06/03 01:29:37;;;;;;;28.83;27.33;;;;;;;20.63;44.95;101770.41;5033805;28;20036;-86
2022/06/03 01:32:25;;;;;;;29.40;27.90;;;;;;;20.64;44.90;101765.75;5034539;28;20040;-86
2022/06/03 01:35:13;;;;;;;29.15;27.55;;;;;;;20.63;44.63;101759.44;5034394;28;20109;-85
2022/06/03 01:38:19;;;;;;;29.38;27.88;;;;;;;20.62;44.59;101755.06;5033685;28;20104;-86
2022/06/03 01:40:58;;;;;;;28.98;27.45;;;;;;;20.62;45.05;101740.53;5031378;28;20111;-86
2022/06/03 01:43:40;;;;;;;;;;;;;;;20.63;44.91;101734.72;5033962;28;20045;-86
2022/06/03 01:46:25;;;;;;;28.90;27.30;;;;;;;20.62;44.79;101741.34;5032742;28;19936;-86
2022/06/03 01:48:56;;;;;;;28.88;27.38;;;;;;;20.61;45.03;101742.41;5033675;28;20097;-86
2022/06/03 01:51:53;;;;;;;30.02;28.42;;;;;;;20.60;45.13;101740.78;5032971;28;20432;-86
2022/06/03 01:54:36;;;;;;;29.30;27.80;;;;;;;20.61;45.25;101741.59;5033541;28;20033;-86
2022/06/03 01:57:38;;;;;;;28.23;26.83;;;;;;;20.61;45.03;101747.09;5034072;28;20056;-85
2022/06/03 02:00:29;;;;;;;28.70;27.20;;;;;;;20.59;44.85;101752.88;5044766;28;20033;-85
2022/06/03 02:03:18;;;;;;;28.73;27.23;;;;;;;20.58;45.23;101737.50;5038852;28;20040;-86
2022/06/03 02:06:17;;;;;;;29.80;28.10;;;;;;;20.59;45.16;101730.94;5040728;28;20034;-86
2022/06/03 02:08:48;;;;;;;29.10;27.60;;;;;;;20.56;45.22;101734.22;5046539;28;20038;-86
2022/06/03 02:11:38;;;;;;;30.10;28.50;;;;;;;20.58;45.01;101729.28;5039083;28;20489;-86
2022/06/03 02:14:22;;;;;;;28.10;26.70;;;;;;;20.57;45.31;101727.66;5034259;28;20112;-86
2022/06/03 02:17:24;;;;;;;29.08;27.58;;;;;;;20.57;45.14;101732.31;5032489;28;20036;-86
2022/06/03 02:20:09;;;;;;;28.25;26.80;;;;;;;20.58;45.23;101722.97;5035841;28;20127;-86
2022/06/03 02:22:34;;;;;;;28.70;27.23;;;;;;;20.57;44.95;101724.91;5037519;28;20029;-85
2022/06/03 02:25:00;;;;;;;29.13;27.63;;;;;;;20.56;45.37;101728.72;5037066;28;20048;-86
2022/06/03 02:27:59;;;;;;;30.30;28.60;;;;;;;20.57;44.88;101738.63;5037480;28;20374;-88
2022/06/03 02:30:42;;;;;;;29.30;27.80;;;;;;;20.57;45.08;101730.38;5037475;28;20030;-86
2022/06/03 02:33:17;;;;;;;28.65;27.15;;;;;;;20.57;45.20;101724.09;5037101;28;20057;-86
2022/06/03 02:36:01;;;;;;;28.48;26.98;;;;;;;20.58;45.12;101721.03;5036500;28;20116;-86
2022/06/03 02:39:04;;;;;;;29.63;28.02;;;;;;;20.57;45.10;101713.91;5037244;28;20377;-86
2022/06/03 02:41:56;;;;;;;29.80;28.30;;;;;;;20.55;45.02;101716.13;5037362;28;20061;-86
2022/06/03 02:44:59;;;;;;;28.50;27.00;;;;;;;20.55;45.01;101707.09;5035691;28;20484;-86
2022/06/03 02:47:46;;;;;;;28.60;27.00;;;;;;;20.54;45.07;101700.75;5040637;28;20432;-86
2022/06/03 02:50:56;;;;;;;28.77;27.33;;;;;;;20.54;45.13;101708.97;5044820;28;20145;-86
2022/06/03 02:54:10;;;;;;;29.42;27.92;;;;;;;20.54;45.32;101714.47;5026210;28;20040;-86
2022/06/03 02:56:54;;;;;;;27.85;26.42;;;;;;;20.53;44.84;101710.88;5036297;28;20041;-86
2022/06/03 02:59:34;;;;;;;28.63;27.13;;;;;;;20.53;45.43;101708.13;5036753;28;20044;-86
2022/06/03 03:02:18;;;;;;;28.20;26.80;;;;;;;20.53;45.36;101710.06;5036357;28;20413;-86
2022/06/03 03:05:12;;;;;;;29.17;27.75;;;;;;;20.53;45.23;101715.56;5035370;28;20045;-86
2022/06/03 03:07:43;;;;;;;29.35;27.85;;;;;;;20.50;45.36;101719.69;5035611;28;20386;-86
2022/06/03 03:10:54;;;;;;;29.63;28.13;;;;;;;20.52;45.46;101711.19;5035622;28;20102;-86
2022/06/03 03:13:57;;;;;;;29.35;27.85;;;;;;;20.50;45.37;101714.19;5036447;28;20041;-86
2022/06/03 03:16:54;;;;;;;29.15;27.65;;;;;;;20.50;45.46;101707.91;5052543;28;20029;-86
2022/06/03 03:19:28;;;;;;;30.17;28.40;;;;;;;20.49;45.49;101703.53;5049722;28;20120;-86
2022/06/03 03:22:02;;;;;;;28.85;27.35;;;;;;;20.50;45.43;101699.66;5036534;28;20052;-86
2022/06/03 03:24:49;;;;;;;29.38;27.88;;;;;;;20.49;45.12;101690.63;5035561;28;20485;-85
2022/06/03 03:27:29;;;;;;;28.83;27.35;;;;;;;20.49;45.44;101696.09;5036603;28;20037;-84
2022/06/03 03:30:20;;;;;;;29.45;27.95;;;;;;;20.49;45.50;101682.38;5037269;28;20041;-86
2022/06/03 03:33:09;;;;;;;29.30;27.80;;;;;;;20.48;45.29;101690.91;5048578;28;20083;-86
2022/06/03 03:35:49;;;;;;;28.98;27.42;;;;;;;20.49;45.37;101685.13;5034838;28;20107;-84
2022/06/03 03:38:52;;;;;;;29.48;27.98;;;;;;;20.45;45.70;101675.81;5035807;28;20437;-86
2022/06/03 03:41:26;;;;;;;29.33;27.80;;;;;;;20.46;45.54;101673.88;5036081;28;20049;-86
2022/06/03 03:44:20;;;;;;;29.27;27.77;;;;;;;20.47;45.75;101684.59;5036674;28;20029;-86
2022/06/03 03:47:07;;;;;;;29.23;27.73;;;;;;;20.48;45.71;101686.22;5035677;28;20025;-86
2022/06/03 03:50:09;;;;;;;30.45;28.85;;;;;;;20.47;45.56;101681.84;5035924;28;20025;-86
2022/06/03 03:52:49;;;;;;;29.67;28.08;;;;;;;20.47;45.37;101681.84;5036007;28;20026;-86
2022/06/03 03:55:27;;;;;;;27.30;25.90;;;;;;;20.47;45.39;101675.53;5036140;28;20060;-85
2022/06/03 03:58:04;;;;;;;28.02;26.63;;;;;;;20.46;45.44;101680.22;5035770;28;20035;-85
2022/06/03 04:01:05;;;;;;;29.48;27.92;;;;;;;20.46;45.27;101669.25;5034529;28;20534;-86
2022/06/03 04:03:40;;;;;;;28.58;27.17;;;;;;;20.45;45.76;101673.06;5035772;28;20075;-86
2022/06/03 04:06:44;;;;;;;29.02;27.52;;;;;;;20.46;45.78;101665.66;5034739;28;20036;-86
2022/06/03 04:09:47;;;;;;;29.23;27.73;;;;;;;20.44;45.31;101673.38;5034288;28;20048;-86
2022/06/03 04:12:46;;;;;;;27.83;26.42;;;;;;;20.45;45.36;101666.78;5035052;28;20107;-86
2022/06/03 04:15:49;;;;;;;27.67;26.27;;;;;;;20.43;45.34;101668.97;5034271;28;20116;-86
2022/06/03 04:18:42;;;;;;;28.67;27.27;;;;;;;20.45;45.66;101677.75;5034117;28;20084;-86
2022/06/03 04:21:43;;;;;;;28.38;26.88;;;;;;;20.42;45.61;101679.16;5033925;28;20063;-86
2022/06/03 04:24:39;;;;;;;28.88;27.38;;;;;;;20.44;45.22;101674.19;5034192;28;20116;-86
2022/06/03 04:27:14;;;;;;;28.35;26.95;;;;;;;20.43;45.35;101674.47;5034669;28;20427;-85
2022/06/03 04:30:01;;;;;;;30.52;28.67;;;;;;;20.43;45.72;101663.50;5033766;28;20037;-86
2022/06/03 04:33:00;;;;;;;28.50;27.00;;;;;;;20.43;45.51;101669.78;5033701;28;20034;-86
2022/06/03 04:35:54;;;;;;;29.35;27.83;;;;;;;20.44;45.63;101665.16;5035250;28;20108;-86
2022/06/03 04:38:56;;;;;;;28.05;26.65;;;;;;;20.46;45.44;101679.38;5034810;28;20097;-86
2022/06/03 04:41:43;;;;;;;29.10;27.55;;;;;;;20.47;45.25;101675.53;5033321;28;20095;-85
2022/06/03 04:44:37;;;;;;;29.67;28.17;;;;;;;20.48;45.24;101674.44;5033858;28;20037;-85
2022/06/03 04:47:24;;;;;;;30.58;29.02;;;;;;;20.47;45.26;101684.59;5033728;28;20033;-86
2022/06/03 04:50:13;;;;;;;29.25;27.75;;;;;;;20.49;45.39;101689.81;5034242;28;20060;-86
2022/06/03 04:53:09;;;;;;;29.73;28.17;;;;;;;20.48;45.52;101688.97;5041206;28;20025;-86
2022/06/03 04:56:02;;;;;;;31.08;29.48;;;;;;;20.51;45.07;101687.56;5035120;28;20072;-86
2022/06/03 04:59:19;;;;;;;29.58;28.02;;;;;;;20.52;45.25;101684.56;5034509;28;20069;-85
2022/06/03 05:01:44;;;;;;;29.13;27.60;;;;;;;20.55;45.08;101682.38;5042574;28;20040;-86
2022/06/03 05:04:52;;;;;;;29.15;27.70;;;;;;;20.55;45.31;101685.13;5036290;28;20119;-86
2022/06/03 05:07:39;;;;;;;29.33;27.73;;;;;;;20.56;45.38;101682.06;5041033;28;20030;-86
2022/06/03 05:10:30;;;;;;;29.95;28.45;;;;;;;20.58;45.49;101679.06;5042872;28;20093;-86
2022/06/03 05:13:24;;;;;;;28.73;27.27;;;;;;;20.56;45.43;101673.84;5035456;28;20044;-86
2022/06/03 05:16:01;;;;;;;28.75;27.35;;;;;;;20.57;45.30;101678.25;5034072;28;20036;-86
2022/06/03 05:18:52;;;;;;;29.88;28.38;;;;;;;20.57;45.27;101680.16;5034017;28;20065;-86
2022/06/03 05:21:42;;;;;;;29.55;27.95;;;;;;;20.58;45.43;101674.38;5033364;28;20473;-86
2022/06/03 05:24:35;;;;;;;29.95;28.35;;;;;;;20.58;45.01;101666.13;5034608;28;20037;-86
2022/06/03 05:27:15;;;;;;;29.67;28.17;;;;;;;20.56;45.33;101662.84;5033654;28;20044;-86
2022/06/03 05:29:56;;;;;;;29.88;28.38;;;;;;;20.58;45.39;101666.13;5033361;28;20033;-85
2022/06/03 05:32:22;;;;;;;28.70;27.27;;;;;;;20.61;45.15;101662.00;5035629;28;20033;-87
2022/06/03 05:35:02;;;;;;;29.00;27.48;;;;;;;20.58;45.53;101657.09;5033639;28;20124;-86
2022/06/03 05:37:40;;;;;;;28.75;27.25;;;;;;;20.58;45.66;101655.16;5033312;28;20037;-85
2022/06/03 05:40:31;;;;;;;29.70;28.13;;;;;;;20.58;45.14;101657.91;5034353;28;20057;-86
2022/06/03 05:43:14;;;;;;;29.17;27.67;;;;;;;20.60;45.54;101663.94;5033312;28;20033;-85
2022/06/03 05:45:58;;;;;;;30.05;28.40;;;;;;;20.62;45.24;101663.66;5032787;28;20033;-87
2022/06/03 05:48:32;;;;;;;29.58;28.00;;;;;;;20.59;44.73;101667.78;5032915;28;20029;-87
2022/06/03 05:51:05;;;;;;;30.85;29.05;;;;;;;20.58;45.38;101666.13;5032741;28;20025;-86
2022/06/03 05:54:07;;;;;;;29.17;27.70;;;;;;;20.58;45.62;101670.81;5032205;28;20124;-86
2022/06/03 05:56:51;;;;;;;30.08;28.52;;;;;;;20.56;45.51;101659.31;5031644;28;20064;-84
2022/06/03 05:59:25;;;;;;;28.40;26.95;;;;;;;20.57;45.42;101653.53;5032895;28;20029;-84
2022/06/03 06:02:13;;;;;;;29.02;27.58;;;;;;;20.58;45.34;101659.84;5032406;28;20033;-84
2022/06/03 06:04:45;;;;;;;30.50;28.70;;;;;;;20.58;45.68;101660.66;5032325;28;20057;-85
2022/06/03 06:07:46;;;;;;;29.10;27.58;;;;;;;20.56;45.40;101660.13;5032853;28;20041;-87
2022/06/03 06:10:26;;;;;;;29.77;28.27;;;;;;;20.62;45.22;101658.16;5033938;28;20065;-86
2022/06/03 06:13:06;;;;;;;29.17;27.60;;;;;;;20.60;45.50;101657.63;5033650;28;20025;-83
2022/06/03 06:15:52;;;;;;;29.75;28.25;;;;;;;20.62;45.56;101666.41;5033030;28;20067;-86
2022/06/03 06:18:42;;;;;;;29.40;27.80;;;;;;;20.60;45.52;101665.88;5032701;28;20124;-88
2022/06/03 06:21:26;;;;;;;27.50;26.10;;;;;;;20.61;45.45;101673.78;5032967;28;20037;-90
2022/06/03 06:24:15;;;;;;;29.10;27.60;;;;;;;20.59;45.38;101670.53;5032806;28;20026;-87
2022/06/03 06:26:56;;;;;;;30.15;28.65;;;;;;;20.60;45.37;101669.41;5032557;28;20053;-87
2022/06/03 06:29:43;;;;;;;29.45;27.85;;;;;;;20.60;45.64;101658.44;5032320;28;20473;-87
2022/06/03 06:32:19;;;;;;;29.55;28.05;;;;;;;20.61;45.31;101668.31;5032242;28;20394;-86
2022/06/03 06:34:57;;;;;;;29.85;28.13;;;;;;;20.61;45.93;101664.75;5032482;28;20033;-87
2022/06/03 06:37:55;;;;;;;28.88;27.48;;;;;;;20.61;45.70;101657.31;5032193;28;20474;-86
2022/06/03 06:40:38;;;;;;;29.00;27.58;;;;;;;20.62;45.66;101655.41;5027464;28;20409;-86
2022/06/03 06:43:39;;;;;;;29.70;28.20;;;;;;;20.62;45.89;101655.41;5032509;28;20032;-88
2022/06/03 06:46:38;;;;;;;28.55;27.08;;;;;;;20.61;45.64;101660.06;5025270;28;20371;-88
2022/06/03 06:49:27;;;;;;;29.95;28.35;;;;;;;20.62;45.69;101667.22;5031542;28;20452;-86
2022/06/03 06:52:27;;;;;;;30.58;28.90;;;;;;;20.64;46.32;101664.19;5034174;28;20104;-89
2022/06/03 06:55:49;;;;;;;30.40;28.80;;;;;;;20.62;46.57;101661.72;5035226;28;20072;-85
2022/06/03 06:58:45;;;;;;;29.98;28.25;;;;;;;20.69;46.90;101670.44;5035171;28;20050;-90
2022/06/03 07:01:37;;;;;;;28.42;26.92;;;;;;;20.67;47.01;101671.84;5032602;28;20509;-91
2022/06/03 07:04:13;;;;;;;30.17;28.55;;;;;;;20.72;49.49;101667.13;5036616;28;20026;-92
2022/06/03 07:06:47;;;;;;;31.00;29.08;;;;;;;20.74;48.28;101669.59;5039570;28;20417;-93
2022/06/03 07:09:30;;;;;;;30.35;28.55;;;;;;;20.80;48.60;101671.16;5038973;28;20064;-94
2022/06/03 07:12:04;;;;;;;32.05;30.02;;;;;;;20.82;49.56;101665.41;5037277;28;20035;-89
2022/06/03 07:14:33;;;;;;;31.95;29.83;;;;;;;20.80;48.70;101665.69;5037149;28;20041;-89
2022/06/03 07:20:12;;;;;;;31.15;29.10;;;;;;;20.74;48.17;101659.41;5037948;28;20095;-90
2022/06/03 07:22:56;;;;;;;32.20;30.08;;;;;;;20.69;48.14;101656.72;5036977;28;20037;-88
2022/06/03 07:25:24;;;;;;;30.63;28.88;;;;;;;20.68;48.48;101655.06;5040992;28;20030;-90
2022/06/03 07:27:56;;;;;;;30.67;28.98;;;;;;;20.69;48.32;101656.72;5037410;28;20037;-87
2022/06/03 07:30:33;;;;;;;30.13;28.20;;;;;;;20.68;48.21;101659.75;5036273;28;20037;-88
2022/06/03 07:33:23;;;;;;;29.95;28.33;;;;;;;20.72;47.96;101650.66;5036665;28;20029;-87
2022/06/03 07:35:55;;;;;;;31.20;29.33;;;;;;;20.73;47.56;101660.50;5030945;28;20053;-89
2022/06/03 07:38:28;;;;;;;31.15;29.35;;;;;;;20.74;47.43;101661.34;5035298;28;20469;-88
2022/06/03 07:41:03;;;;;;;31.73;29.83;;;;;;;20.75;47.39;101657.50;5036860;28;20049;-86
2022/06/03 07:43:44;;;;;;;31.45;29.55;;;;;;;20.75;48.01;101650.06;5036277;28;20087;-86
2022/06/03 07:46:13;;;;;;;31.63;29.92;;;;;;;20.75;47.94;101641.00;5036252;28;20065;-86
2022/06/03 07:48:39;;;;;;;33.20;31.05;;;;;;;20.76;47.75;101650.88;5034902;28;20461;-86
2022/06/03 07:51:49;;;;;;;31.10;29.20;;;;;;;20.75;47.20;101644.56;5035883;28;20362;-85
2022/06/03 07:54:26;;;;;;;30.17;28.50;;;;;;;20.78;47.43;101654.16;5013346;28;20041;-86
2022/06/03 07:57:00;;;;;;;31.23;29.23;;;;;;;20.77;46.95;101647.03;5040853;28;20056;-86
2022/06/03 07:59:26;;;;;;;31.13;29.33;;;;;;;20.80;46.78;101645.63;5058449;28;20017;-84
2022/06/03 08:02:05;;;;;;;32.55;30.65;;;;;;;20.80;47.14;101638.22;5057201;28;20041;-85
2022/06/03 08:04:36;;;;;;;32.70;30.83;;;;;;;20.81;47.13;101626.13;5056303;28;20017;-89
2022/06/03 08:12:37;;;;;;;30.33;28.63;;;;;;;20.82;47.24;101616.78;5044094;28;20103;-90
2022/06/03 08:15:22;;;;;;;31.85;29.95;;;;;;;20.84;47.11;101610.97;5039081;28;20038;-89
2022/06/03 08:17:50;;;;;;;30.92;29.13;;;;;;;20.83;46.95;101612.09;5038825;28;20022;-92
2022/06/03 08:20:20;;;;;;;30.45;28.75;;;;;;;20.86;46.57;101609.59;5040461;28;20117;-91
2022/06/03 08:22:46;;;;;;;30.27;28.58;;;;;;;20.85;46.91;101604.41;5044761;28;20048;-89
2022/06/03 08:25:20;;;;;;;31.23;29.52;;;;;;;20.85;46.47;101599.72;5043498;28;20097;-93
2022/06/03 08:27:48;;;;;;;30.85;28.95;;;;;;;20.85;46.70;101607.16;5045748;28;20057;-88
2022/06/03 08:30:22;;;;;;;30.35;28.65;;;;;;;20.87;46.86;101605.75;5038938;28;20438;-85
2022/06/03 08:32:55;;;;;;;30.40;28.80;;;;;;;20.90;46.43;101618.06;5043647;28;20033;-88
2022/06/03 08:35:27;;;;;;;31.52;29.70;;;;;;;20.89;46.50;101617.25;5046059;28;20037;-90
2022/06/03 08:37:58;;;;;;;31.92;30.08;;;;;;;20.89;46.63;101613.69;5044501;28;20025;-87
2022/06/03 08:40:44;;;;;;;31.17;29.48;;;;;;;20.88;46.89;101610.13;5043246;28;20132;-91
2022/06/03 08:43:40;;;;;;;31.02;29.33;;;;;;;20.88;46.14;101615.59;5041861;28;20060;-91
2022/06/03 08:46:06;;;;;;;33.25;31.27;;;;;;;20.87;46.32;101621.41;5037308;28;20026;-88
2022/06/03 08:48:40;;;;;;;30.80;29.10;;;;;;;20.89;45.90;101620.00;5037172;28;20036;-91
2022/06/03 08:51:13;;;;;;;31.63;29.73;;;;;;;20.91;46.51;101616.94;5036206;28;20033;-86
2022/06/03 08:53:53;;;;;;;32.70;30.90;;;;;;;20.88;46.24;101620.28;5037621;28;20061;-90
2022/06/03 08:56:24;;;;;;;30.95;29.25;;;;;;;20.92;46.45;101618.59;5041735;28;20029;-90
2022/06/03 08:59:01;;;;;;;31.85;30.08;;;;;;;20.93;46.26;101618.31;5039699;28;20060;-83
2022/06/03 09:01:38;;;;;;;30.85;29.25;;;;;;;20.93;46.28;101612.81;5040173;28;20162;-89
2022/06/03 09:04:08;;;;;;;32.33;30.52;;;;;;;20.93;46.20;101621.03;5042422;28;20026;-90
2022/06/03 09:06:43;;;;;;;31.85;29.95;;;;;;;20.95;46.36;101620.75;5038077;28;20080;-90
2022/06/03 09:09:17;;;;;;;32.30;30.27;;;;;;;20.99;46.07;101613.59;5036411;28;20030;-90
2022/06/03 09:12:07;;;;;;;31.45;29.45;;;;;;;20.99;46.30;101613.59;5038630;28;20036;-86
2022/06/03 09:14:33;;;;;;;30.70;29.02;;;;;;;21.02;46.26;101610.25;5036748;28;20041;-91
2022/06/03 09:17:07;;;;;;;32.05;30.25;;;;;;;20.96;45.89;101611.41;5045706;28;20039;-92
2022/06/03 09:19:44;;;;;;;31.50;29.80;;;;;;;20.92;46.87;101613.13;5041733;28;20037;-93
2022/06/03 09:22:24;;;;;;;33.08;31.00;;;;;;;20.98;46.35;101611.13;5036753;28;20033;-82
2022/06/03 09:24:50;;;;;;;30.95;29.25;;;;;;;21.02;46.52;101626.72;5034649;28;20033;-86
2022/06/03 09:27:16;;;;;;;31.58;29.73;;;;;;;21.03;46.26;101622.06;5032791;28;20366;-86
2022/06/03 09:29:48;;;;;;;31.77;29.85;;;;;;;21.06;46.68;101622.28;5034445;28;20025;-83
2022/06/03 09:32:16;;;;;;;31.67;29.88;;;;;;;21.09;46.91;101609.88;5032781;28;20424;-81
2022/06/03 09:34:46;;;;;;;31.42;29.35;;;;;;;21.10;46.88;101609.59;5032603;28;20033;-81
2022/06/03 09:37:22;;;;;;;32.70;30.40;;;;;;;21.09;46.73;101602.50;5033809;28;20392;-82
2022/06/03 09:39:50;;;;;;;34.00;31.63;;;;;;;21.14;47.02;101602.41;5033948;28;20072;-82
2022/06/03 09:42:19;;;;;;;32.45;30.27;;;;;;;21.13;47.33;101606.25;5033959;28;20077;-82
2022/06/03 09:44:48;;;;;;;33.15;30.88;;;;;;;21.09;47.58;101605.22;5034309;28;20025;-83
2022/06/03 09:47:18;;;;;;;32.25;30.45;;;;;;;21.13;47.30;101606.25;5032532;28;20083;-81
2022/06/03 09:49:46;;;;;;;32.70;30.80;;;;;;;21.11;46.86;101613.97;5033932;28;20040;-81
2022/06/03 09:52:14;;;;;;;33.28;31.27;;;;;;;21.13;46.77;101605.44;5032357;28;20033;-80
2022/06/03 09:54:43;;;;;;;31.10;29.48;;;;;;;21.14;46.63;101604.31;5034029;28;20034;-80
2022/06/03 09:57:41;;;;;;;32.95;31.00;;;;;;;21.13;46.88;101600.78;5033437;28;20030;-80
2022/06/03 10:00:21;;;;;;;32.70;30.83;;;;;;;21.16;46.30;101602.13;5033237;28;20021;-80
2022/06/03 10:02:47;;;;;;;30.33;28.63;;;;;;;21.16;46.43;101591.13;5033081;28;20331;-82
2022/06/03 10:05:16;;;;;;;33.08;31.13;;;;;;;21.13;46.39;101588.97;5033413;28;20533;-82
2022/06/03 10:07:43;;;;;;;32.90;30.88;;;;;;;21.11;45.92;101592.00;5033232;28;20040;-81
2022/06/03 10:12:59;;;;;;;32.85;30.90;;;;;;;21.16;46.44;101586.44;5033834;28;20040;-80
2022/06/03 10:15:44;;;;;;;31.48;29.85;;;;;;;21.18;46.61;101586.97;5048601;28;20053;-81
2022/06/03 10:18:33;;;;;;;32.60;30.50;;;;;;;21.20;46.27;101588.63;5032601;28;20033;-81
2022/06/03 10:21:18;;;;;;;32.10;30.30;;;;;;;21.20;46.64;101589.44;5033332;28;20504;-80
2022/06/03 10:23:51;;;;;;;32.75;30.52;;;;;;;21.24;45.99;101579.47;5033230;28;20033;-81
2022/06/03 10:26:22;;;;;;;33.63;31.73;;;;;;;21.25;45.97;101580.31;5032916;28;20139;-80
2022/06/03 10:28:49;;;;;;;31.67;29.88;;;;;;;21.23;46.30;101577.03;5033248;28;20116;-81
2022/06/03 10:31:18;;;;;;;33.75;31.67;;;;;;;21.18;46.45;101586.16;5033849;28;20123;-82
2022/06/03 10:34:00;;;;;;;33.75;31.83;;;;;;;21.24;46.23;101573.97;5032590;28;20030;-82
2022/06/03 10:36:37;;;;;;;30.75;29.13;;;;;;;21.27;46.16;101569.81;5033084;28;20030;-88
2022/06/03 10:39:05;;;;;;;35.60;32.42;;;;;;;21.27;46.62;101578.06;5034433;28;20462;-83
2022/06/03 10:41:40;;;;;;;32.47;30.57;;;;;;;21.29;46.73;101573.94;5037743;28;20509;-80
2022/06/03 10:44:18;;;;;;;35.83;33.35;;;;;;;21.38;46.61;101574.09;5037369;28;20056;-76
2022/06/03 10:47:13;;;;;;;42.53;40.33;;;;;;;21.41;46.45;101579.03;5036935;28;20021;-82
2022/06/03 10:49:53;;;;;;;51.20;48.40;;;;;;;21.46;46.43;101570.69;5036697;28;20034;-79
2022/06/03 11:01:07;;;;;;;44.67;42.25;;;;;;;21.53;47.09;101562.09;5037563;28;20187;-80
2022/06/03 11:03:34;;;;;;;42.50;40.35;;;;;;;21.56;46.77;101561.50;5053034;28;20034;-80
2022/06/03 11:06:10;;;;;;;44.40;41.97;;;;;;;21.60;46.58;101554.31;5052728;28;20042;-78
2022/06/03 11:09:05;;;;;;;44.28;42.08;;;;;;;21.59;46.97;101547.97;5037067;28;20438;-81
2022/06/03 11:11:42;;;;;;;41.08;39.08;;;;;;;21.63;47.05;101553.69;5036548;28;20128;-78
2022/06/03 11:14:32;;;;;;;43.83;41.42;;;;;;;21.56;46.71;101551.31;5036775;28;20033;-85
2022/06/03 11:17:07;;;;;;;43.30;41.13;;;;;;;21.57;46.00;101547.47;5036855;28;20079;-78
2022/06/03 11:19:49;;;;;;;43.17;40.97;;;;;;;21.58;46.36;101546.34;5036097;28;20370;-76
2022/06/03 11:22:17;;;;;;;42.72;40.42;;;;;;;21.59;46.40;101539.72;5035988;28;20092;-79
2022/06/03 11:25:05;;;;;;;40.80;38.80;;;;;;;21.61;46.54;101558.69;5035921;28;20025;-80
2022/06/03 11:27:56;;;;;;;41.85;39.55;;;;;;;21.60;45.91;101549.63;5031611;28;20493;-79
2022/06/03 11:30:37;;;;;;;42.95;40.40;;;;;;;21.63;45.89;101541.91;5035335;28;20045;-79
2022/06/03 11:33:08;;;;;;;39.10;37.00;;;;;;;21.65;46.06;101534.16;5035950;28;20108;-81
2022/06/03 11:35:44;;;;;;;40.90;38.38;;;;;;;21.64;45.88;101549.00;5034770;28;20377;-79
2022/06/03 11:38:17;;;;;;;41.90;39.80;;;;;;;21.63;45.82;101544.66;5035815;28;20044;-79
2022/06/03 11:40:51;;;;;;;40.88;38.67;;;;;;;21.63;46.01;101556.44;5034405;28;20489;-78
2022/06/03 11:43:23;;;;;;;41.67;39.47;;;;;;;21.65;45.99;101559.72;5036138;28;20109;-79
2022/06/03 11:45:57;;;;;;;41.58;39.55;;;;;;;21.65;45.66;101559.72;5035590;28;20025;-78
2022/06/03 11:48:39;;;;;;;40.38;38.22;;;;;;;21.65;45.76;101553.41;5035519;28;20045;-78
2022/06/03 11:51:07;;;;;;;40.17;38.25;;;;;;;21.66;45.77;101553.09;5034603;28;20047;-81
2022/06/03 11:53:37;;;;;;;40.10;38.00;;;;;;;21.67;45.86;101554.75;5035457;28;20036;-81
2022/06/03 11:56:05;;;;;;;40.63;38.63;;;;;;;21.67;45.93;101548.41;5035508;28;20029;-79
2022/06/03 11:59:16;;;;;;;39.60;37.60;;;;;;;21.64;45.94;101552.56;5035471;28;20107;-81
2022/06/03 12:01:57;;;;;;;39.35;37.38;;;;;;;21.66;45.75;101553.09;5032946;28;20316;-80
2022/06/03 12:04:53;;;;;;;41.60;39.50;;;;;;;21.67;45.81;101552.00;5035496;28;20048;-79
2022/06/03 12:07:42;;;;;;;41.45;39.30;;;;;;;21.65;45.80;101554.22;5035161;28;20481;-78
2022/06/03 12:10:25;;;;;;;39.83;37.80;;;;;;;21.66;45.80;101560.53;5035847;28;20108;-85
2022/06/03 12:13:26;;;;;;;39.50;37.58;;;;;;;21.66;45.69;101558.59;5035286;28;20040;-79
2022/06/03 12:15:55;;;;;;;39.55;37.65;;;;;;;21.67;45.93;101557.50;5035174;28;20025;-78
2022/06/03 12:18:34;;;;;;;40.75;38.65;;;;;;;21.66;46.14;101552.28;5034926;28;20034;-78
2022/06/03 12:21:07;;;;;;;;;;;;;;;21.67;45.86;101545.66;5035231;28;20040;-78
2022/06/03 12:23:35;;;;;;;39.30;37.33;;;;;;;21.68;46.02;101544.56;5035369;28;20249;-78
2022/06/03 12:26:06;;;;;;;37.80;36.00;;;;;;;21.68;45.87;101539.88;5033663;28;20212;-78
2022/06/03 12:28:37;;;;;;;39.17;37.28;;;;;;;21.68;45.71;101528.88;5034814;28;20033;-77
2022/06/03 12:31:07;;;;;;;39.25;37.35;;;;;;;21.68;45.62;101528.88;5034534;28;20056;-79
2022/06/03 12:33:45;;;;;;;39.75;37.75;;;;;;;21.68;45.54;101519.81;5034048;28;20068;-81
2022/06/03 12:36:35;;;;;;;40.05;37.95;;;;;;;21.69;45.48;101515.94;5033897;28;20087;-79
2022/06/03 12:39:00;;;;;;;40.40;38.28;;;;;;;21.70;45.73;101521.16;5034303;28;20021;-77